sensor_id;sensor_type;location;lat;lon;timestamp;P1;durP1;ratioP1;P2;durP2;ratioP2
11313;SDS011;5712;48.858;9.206;2022-11-13T00:01:10;17.67;;;15.87;;
11313;SDS011;5712;48.858;9.206;2022-11-13T00:03:41;17.33;;;15.47;;
11313;SDS011;5712;48.858;9.206;2022-11-13T00:06:08;16.43;;;14.67;;
11313;SDS011;5712;48.858;9.206;2022-11-13T00:08:36;18.27;;;14.80;;
11313;SDS011;5712;48.858;9.206;2022-11-13T00:11:05;17.23;;;14.63;;
11313;SDS011;5712;48.858;9.206;2022-11-13T00:13:36;17.40;;;13.60;;
11313;SDS011;5712;48.858;9.206;2022-11-13T00:16:04;17.73;;;14.07;;
11313;SDS011;5712;48.858;9.206;2022-11-13T00:18:34;16.27;;;14.17;;
11313;SDS011;5712;48.858;9.206;2022-11-13T00:21:04;17.93;;;15.03;;
11313;SDS011;5712;48.858;9.206;2022-11-13T00:23:32;19.20;;;15.73;;
11313;SDS011;5712;48.858;9.206;2022-11-13T00:26:05;15.90;;;14.20;;
11313;SDS011;5712;48.858;9.206;2022-11-13T00:28:33;15.83;;;14.03;;
11313;SDS011;5712;48.858;9.206;2022-11-13T00:31:00;16.63;;;14.37;;
11313;SDS011;5712;48.858;9.206;2022-11-13T00:33:29;18.63;;;14.93;;
11313;SDS011;5712;48.858;9.206;2022-11-13T00:36:00;17.23;;;13.73;;
11313;SDS011;5712;48.858;9.206;2022-11-13T00:38:28;16.03;;;13.70;;
11313;SDS011;5712;48.858;9.206;2022-11-13T00:40:55;14.87;;;13.33;;
11313;SDS011;5712;48.858;9.206;2022-11-13T00:43:23;15.70;;;13.13;;
11313;SDS011;5712;48.858;9.206;2022-11-13T00:45:50;15.20;;;13.30;;
11313;SDS011;5712;48.858;9.206;2022-11-13T00:48:17;14.40;;;12.90;;
11313;SDS011;5712;48.858;9.206;2022-11-13T00:50:44;14.40;;;12.80;;
11313;SDS011;5712;48.858;9.206;2022-11-13T00:53:11;14.03;;;12.63;;
11313;SDS011;5712;48.858;9.206;2022-11-13T00:55:37;13.03;;;11.43;;
11313;SDS011;5712;48.858;9.206;2022-11-13T00:58:04;14.23;;;12.73;;
11313;SDS011;5712;48.858;9.206;2022-11-13T01:00:32;14.73;;;12.27;;
11313;SDS011;5712;48.858;9.206;2022-11-13T01:02:59;11.40;;;10.23;;
11313;SDS011;5712;48.858;9.206;2022-11-13T01:05:26;11.63;;;10.40;;
11313;SDS011;5712;48.858;9.206;2022-11-13T01:07:53;11.37;;;10.17;;
11313;SDS011;5712;48.858;9.206;2022-11-13T01:10:20;11.73;;;10.37;;
11313;SDS011;5712;48.858;9.206;2022-11-13T01:12:47;13.07;;;11.30;;
11313;SDS011;5712;48.858;9.206;2022-11-13T01:15:13;13.93;;;12.20;;
11313;SDS011;5712;48.858;9.206;2022-11-13T01:17:41;16.30;;;11.87;;
11313;SDS011;5712;48.858;9.206;2022-11-13T01:20:08;14.33;;;11.40;;
11313;SDS011;5712;48.858;9.206;2022-11-13T01:22:36;16.87;;;12.43;;
11313;SDS011;5712;48.858;9.206;2022-11-13T01:25:02;15.70;;;11.77;;
11313;SDS011;5712;48.858;9.206;2022-11-13T01:27:30;14.83;;;11.53;;
11313;SDS011;5712;48.858;9.206;2022-11-13T01:29:57;15.30;;;11.63;;
11313;SDS011;5712;48.858;9.206;2022-11-13T01:32:23;13.97;;;10.90;;
11313;SDS011;5712;48.858;9.206;2022-11-13T01:34:51;15.60;;;11.80;;
11313;SDS011;5712;48.858;9.206;2022-11-13T01:37:18;16.07;;;12.23;;
11313;SDS011;5712;48.858;9.206;2022-11-13T01:39:44;16.27;;;12.63;;
11313;SDS011;5712;48.858;9.206;2022-11-13T01:42:11;16.87;;;12.80;;
11313;SDS011;5712;48.858;9.206;2022-11-13T01:44:45;16.00;;;11.83;;
11313;SDS011;5712;48.858;9.206;2022-11-13T01:47:13;16.93;;;11.50;;
11313;SDS011;5712;48.858;9.206;2022-11-13T01:49:41;13.40;;;10.67;;
11313;SDS011;5712;48.858;9.206;2022-11-13T01:52:11;13.10;;;10.90;;
11313;SDS011;5712;48.858;9.206;2022-11-13T01:54:41;13.67;;;11.60;;
11313;SDS011;5712;48.858;9.206;2022-11-13T01:57:11;14.43;;;11.67;;
11313;SDS011;5712;48.858;9.206;2022-11-13T01:59:40;13.83;;;10.63;;
11313;SDS011;5712;48.858;9.206;2022-11-13T02:02:11;14.17;;;11.93;;
11313;SDS011;5712;48.858;9.206;2022-11-13T02:04:40;14.07;;;11.27;;
11313;SDS011;5712;48.858;9.206;2022-11-13T02:07:07;12.80;;;10.73;;
11313;SDS011;5712;48.858;9.206;2022-11-13T02:09:38;11.77;;;10.50;;
11313;SDS011;5712;48.858;9.206;2022-11-13T02:12:07;11.73;;;10.20;;
11313;SDS011;5712;48.858;9.206;2022-11-13T02:14:37;14.43;;;11.97;;
11313;SDS011;5712;48.858;9.206;2022-11-13T02:17:07;12.77;;;11.10;;
11313;SDS011;5712;48.858;9.206;2022-11-13T02:19:37;12.53;;;11.03;;
11313;SDS011;5712;48.858;9.206;2022-11-13T02:22:09;12.03;;;10.40;;
11313;SDS011;5712;48.858;9.206;2022-11-13T02:24:42;11.43;;;9.93;;
11313;SDS011;5712;48.858;9.206;2022-11-13T02:27:12;11.27;;;9.40;;
11313;SDS011;5712;48.858;9.206;2022-11-13T02:29:42;11.80;;;10.33;;
11313;SDS011;5712;48.858;9.206;2022-11-13T02:32:09;12.43;;;10.30;;
11313;SDS011;5712;48.858;9.206;2022-11-13T02:34:35;11.83;;;10.57;;
11313;SDS011;5712;48.858;9.206;2022-11-13T02:37:02;13.03;;;10.70;;
11313;SDS011;5712;48.858;9.206;2022-11-13T02:39:28;11.47;;;10.27;;
11313;SDS011;5712;48.858;9.206;2022-11-13T02:41:56;11.97;;;10.37;;
11313;SDS011;5712;48.858;9.206;2022-11-13T02:44:23;12.60;;;10.50;;
11313;SDS011;5712;48.858;9.206;2022-11-13T02:46:50;11.50;;;10.23;;
11313;SDS011;5712;48.858;9.206;2022-11-13T02:49:16;10.87;;;9.77;;
11313;SDS011;5712;48.858;9.206;2022-11-13T02:51:43;10.77;;;9.33;;
11313;SDS011;5712;48.858;9.206;2022-11-13T02:54:10;11.53;;;10.33;;
11313;SDS011;5712;48.858;9.206;2022-11-13T02:56:36;11.40;;;10.17;;
11313;SDS011;5712;48.858;9.206;2022-11-13T02:59:04;11.50;;;9.90;;
11313;SDS011;5712;48.858;9.206;2022-11-13T03:01:31;10.97;;;9.80;;
11313;SDS011;5712;48.858;9.206;2022-11-13T03:03:58;10.70;;;9.40;;
11313;SDS011;5712;48.858;9.206;2022-11-13T03:06:24;13.67;;;11.20;;
11313;SDS011;5712;48.858;9.206;2022-11-13T03:08:51;11.80;;;10.60;;
11313;SDS011;5712;48.858;9.206;2022-11-13T03:11:18;10.07;;;9.03;;
11313;SDS011;5712;48.858;9.206;2022-11-13T03:13:44;11.80;;;10.17;;
11313;SDS011;5712;48.858;9.206;2022-11-13T03:16:13;11.87;;;10.53;;
11313;SDS011;5712;48.858;9.206;2022-11-13T03:18:41;11.17;;;9.90;;
11313;SDS011;5712;48.858;9.206;2022-11-13T03:21:08;10.60;;;9.43;;
11313;SDS011;5712;48.858;9.206;2022-11-13T03:23:37;11.27;;;10.03;;
11313;SDS011;5712;48.858;9.206;2022-11-13T03:26:04;12.57;;;10.30;;
11313;SDS011;5712;48.858;9.206;2022-11-13T03:28:32;12.10;;;9.87;;
11313;SDS011;5712;48.858;9.206;2022-11-13T03:30:59;11.83;;;10.53;;
11313;SDS011;5712;48.858;9.206;2022-11-13T03:33:27;11.97;;;10.20;;
11313;SDS011;5712;48.858;9.206;2022-11-13T03:35:54;11.00;;;9.67;;
11313;SDS011;5712;48.858;9.206;2022-11-13T03:38:21;11.60;;;9.90;;
11313;SDS011;5712;48.858;9.206;2022-11-13T03:40:48;11.53;;;9.73;;
11313;SDS011;5712;48.858;9.206;2022-11-13T03:43:15;11.70;;;10.20;;
11313;SDS011;5712;48.858;9.206;2022-11-13T03:45:42;10.73;;;9.63;;
11313;SDS011;5712;48.858;9.206;2022-11-13T03:48:10;11.03;;;9.83;;
11313;SDS011;5712;48.858;9.206;2022-11-13T03:50:38;10.10;;;9.10;;
11313;SDS011;5712;48.858;9.206;2022-11-13T03:53:05;11.10;;;9.20;;
11313;SDS011;5712;48.858;9.206;2022-11-13T03:55:31;10.53;;;9.43;;
11313;SDS011;5712;48.858;9.206;2022-11-13T03:57:58;10.10;;;9.10;;
11313;SDS011;5712;48.858;9.206;2022-11-13T04:00:24;11.53;;;10.23;;
11313;SDS011;5712;48.858;9.206;2022-11-13T04:02:51;10.13;;;9.13;;
11313;SDS011;5712;48.858;9.206;2022-11-13T04:05:18;11.30;;;9.87;;
11313;SDS011;5712;48.858;9.206;2022-11-13T04:07:46;11.30;;;9.80;;
11313;SDS011;5712;48.858;9.206;2022-11-13T04:10:13;11.83;;;9.70;;
11313;SDS011;5712;48.858;9.206;2022-11-13T04:12:39;10.10;;;9.03;;
11313;SDS011;5712;48.858;9.206;2022-11-13T04:15:06;10.87;;;9.40;;
11313;SDS011;5712;48.858;9.206;2022-11-13T04:17:33;10.73;;;9.60;;
11313;SDS011;5712;48.858;9.206;2022-11-13T04:20:00;12.93;;;11.43;;
11313;SDS011;5712;48.858;9.206;2022-11-13T04:22:27;13.60;;;11.53;;
11313;SDS011;5712;48.858;9.206;2022-11-13T04:24:55;13.50;;;10.87;;
11313;SDS011;5712;48.858;9.206;2022-11-13T04:27:21;13.40;;;11.50;;
11313;SDS011;5712;48.858;9.206;2022-11-13T04:29:48;13.13;;;11.47;;
11313;SDS011;5712;48.858;9.206;2022-11-13T04:32:15;12.27;;;10.87;;
11313;SDS011;5712;48.858;9.206;2022-11-13T04:34:41;12.10;;;10.80;;
11313;SDS011;5712;48.858;9.206;2022-11-13T04:37:08;12.33;;;10.30;;
11313;SDS011;5712;48.858;9.206;2022-11-13T04:39:35;11.30;;;10.07;;
11313;SDS011;5712;48.858;9.206;2022-11-13T04:42:03;11.60;;;9.67;;
11313;SDS011;5712;48.858;9.206;2022-11-13T04:44:47;12.10;;;10.80;;
11313;SDS011;5712;48.858;9.206;2022-11-13T04:47:13;11.33;;;9.67;;
11313;SDS011;5712;48.858;9.206;2022-11-13T04:49:40;12.33;;;10.70;;
11313;SDS011;5712;48.858;9.206;2022-11-13T04:52:07;12.00;;;10.37;;
11313;SDS011;5712;48.858;9.206;2022-11-13T04:54:33;12.47;;;10.70;;
11313;SDS011;5712;48.858;9.206;2022-11-13T04:57:00;11.80;;;10.37;;
11313;SDS011;5712;48.858;9.206;2022-11-13T04:59:28;11.97;;;10.50;;
11313;SDS011;5712;48.858;9.206;2022-11-13T05:01:55;12.17;;;10.57;;
11313;SDS011;5712;48.858;9.206;2022-11-13T05:04:22;12.37;;;10.50;;
11313;SDS011;5712;48.858;9.206;2022-11-13T05:06:49;11.60;;;10.40;;
11313;SDS011;5712;48.858;9.206;2022-11-13T05:09:15;11.63;;;10.43;;
11313;SDS011;5712;48.858;9.206;2022-11-13T05:11:42;10.90;;;9.80;;
11313;SDS011;5712;48.858;9.206;2022-11-13T05:14:10;11.17;;;10.03;;
11313;SDS011;5712;48.858;9.206;2022-11-13T05:16:38;13.30;;;10.37;;
11313;SDS011;5712;48.858;9.206;2022-11-13T05:19:05;10.87;;;9.77;;
11313;SDS011;5712;48.858;9.206;2022-11-13T05:21:32;11.37;;;10.17;;
11313;SDS011;5712;48.858;9.206;2022-11-13T05:23:58;11.33;;;10.17;;
11313;SDS011;5712;48.858;9.206;2022-11-13T05:26:25;12.17;;;10.17;;
11313;SDS011;5712;48.858;9.206;2022-11-13T05:28:52;10.57;;;9.47;;
11313;SDS011;5712;48.858;9.206;2022-11-13T05:31:21;11.93;;;10.00;;
11313;SDS011;5712;48.858;9.206;2022-11-13T05:33:49;11.37;;;9.63;;
11313;SDS011;5712;48.858;9.206;2022-11-13T05:36:16;11.60;;;10.20;;
11313;SDS011;5712;48.858;9.206;2022-11-13T05:38:44;12.33;;;10.50;;
11313;SDS011;5712;48.858;9.206;2022-11-13T05:41:12;12.23;;;10.57;;
11313;SDS011;5712;48.858;9.206;2022-11-13T05:43:41;12.37;;;10.70;;
11313;SDS011;5712;48.858;9.206;2022-11-13T05:46:08;11.53;;;10.33;;
11313;SDS011;5712;48.858;9.206;2022-11-13T05:48:38;14.20;;;11.10;;
11313;SDS011;5712;48.858;9.206;2022-11-13T05:51:07;11.23;;;10.03;;
11313;SDS011;5712;48.858;9.206;2022-11-13T05:53:35;10.87;;;9.77;;
11313;SDS011;5712;48.858;9.206;2022-11-13T05:56:02;11.97;;;10.63;;
11313;SDS011;5712;48.858;9.206;2022-11-13T05:58:31;11.17;;;10.03;;
11313;SDS011;5712;48.858;9.206;2022-11-13T06:01:05;14.30;;;10.60;;
11313;SDS011;5712;48.858;9.206;2022-11-13T06:03:33;11.17;;;9.70;;
11313;SDS011;5712;48.858;9.206;2022-11-13T06:06:00;11.53;;;9.63;;
11313;SDS011;5712;48.858;9.206;2022-11-13T06:08:28;12.43;;;9.47;;
11313;SDS011;5712;48.858;9.206;2022-11-13T06:10:57;11.47;;;10.00;;
11313;SDS011;5712;48.858;9.206;2022-11-13T06:13:24;12.30;;;9.80;;
11313;SDS011;5712;48.858;9.206;2022-11-13T06:15:51;11.93;;;10.07;;
11313;SDS011;5712;48.858;9.206;2022-11-13T06:18:20;12.73;;;9.60;;
11313;SDS011;5712;48.858;9.206;2022-11-13T06:20:47;9.77;;;8.70;;
11313;SDS011;5712;48.858;9.206;2022-11-13T06:23:14;10.57;;;9.47;;
11313;SDS011;5712;48.858;9.206;2022-11-13T06:25:42;12.60;;;10.17;;
11313;SDS011;5712;48.858;9.206;2022-11-13T06:28:08;10.90;;;9.70;;
11313;SDS011;5712;48.858;9.206;2022-11-13T06:30:35;10.73;;;8.73;;
11313;SDS011;5712;48.858;9.206;2022-11-13T06:33:02;9.57;;;8.57;;
11313;SDS011;5712;48.858;9.206;2022-11-13T06:35:28;11.63;;;9.57;;
11313;SDS011;5712;48.858;9.206;2022-11-13T06:37:56;11.50;;;9.67;;
11313;SDS011;5712;48.858;9.206;2022-11-13T06:40:22;10.00;;;8.93;;
11313;SDS011;5712;48.858;9.206;2022-11-13T06:42:51;10.03;;;9.03;;
11313;SDS011;5712;48.858;9.206;2022-11-13T06:45:17;10.40;;;9.30;;
11313;SDS011;5712;48.858;9.206;2022-11-13T06:47:44;10.13;;;9.13;;
11313;SDS011;5712;48.858;9.206;2022-11-13T06:50:11;10.97;;;9.57;;
11313;SDS011;5712;48.858;9.206;2022-11-13T06:52:38;10.23;;;9.23;;
11313;SDS011;5712;48.858;9.206;2022-11-13T06:55:04;11.93;;;9.40;;
11313;SDS011;5712;48.858;9.206;2022-11-13T06:57:31;9.47;;;8.47;;
11313;SDS011;5712;48.858;9.206;2022-11-13T06:59:59;9.07;;;8.17;;
11313;SDS011;5712;48.858;9.206;2022-11-13T07:02:26;10.33;;;8.93;;
11313;SDS011;5712;48.858;9.206;2022-11-13T07:04:53;10.30;;;9.20;;
11313;SDS011;5712;48.858;9.206;2022-11-13T07:07:19;10.63;;;9.30;;
11313;SDS011;5712;48.858;9.206;2022-11-13T07:09:46;10.93;;;9.50;;
11313;SDS011;5712;48.858;9.206;2022-11-13T07:12:12;10.20;;;9.20;;
11313;SDS011;5712;48.858;9.206;2022-11-13T07:14:39;10.33;;;9.13;;
11313;SDS011;5712;48.858;9.206;2022-11-13T07:17:07;9.67;;;8.67;;
11313;SDS011;5712;48.858;9.206;2022-11-13T07:19:34;10.07;;;9.07;;
11313;SDS011;5712;48.858;9.206;2022-11-13T07:22:00;11.20;;;9.60;;
11313;SDS011;5712;48.858;9.206;2022-11-13T07:24:27;10.70;;;8.87;;
11313;SDS011;5712;48.858;9.206;2022-11-13T07:26:54;10.17;;;9.03;;
11313;SDS011;5712;48.858;9.206;2022-11-13T07:29:20;10.60;;;9.30;;
11313;SDS011;5712;48.858;9.206;2022-11-13T07:31:47;9.67;;;8.67;;
11313;SDS011;5712;48.858;9.206;2022-11-13T07:34:15;10.13;;;8.43;;
11313;SDS011;5712;48.858;9.206;2022-11-13T07:36:42;11.33;;;8.77;;
11313;SDS011;5712;48.858;9.206;2022-11-13T07:39:08;9.23;;;8.33;;
11313;SDS011;5712;48.858;9.206;2022-11-13T07:41:35;9.37;;;8.37;;
11313;SDS011;5712;48.858;9.206;2022-11-13T07:44:02;9.83;;;8.00;;
11313;SDS011;5712;48.858;9.206;2022-11-13T07:46:28;10.03;;;8.97;;
11313;SDS011;5712;48.858;9.206;2022-11-13T07:48:55;10.80;;;8.20;;
11313;SDS011;5712;48.858;9.206;2022-11-13T07:51:23;10.23;;;9.13;;
11313;SDS011;5712;48.858;9.206;2022-11-13T07:53:50;11.43;;;9.90;;
11313;SDS011;5712;48.858;9.206;2022-11-13T07:56:16;10.37;;;8.87;;
11313;SDS011;5712;48.858;9.206;2022-11-13T07:58:43;10.33;;;9.17;;
11313;SDS011;5712;48.858;9.206;2022-11-13T08:01:10;10.27;;;9.17;;
11313;SDS011;5712;48.858;9.206;2022-11-13T08:03:36;10.30;;;9.03;;
11313;SDS011;5712;48.858;9.206;2022-11-13T08:06:04;10.57;;;9.47;;
11313;SDS011;5712;48.858;9.206;2022-11-13T08:08:33;11.73;;;10.13;;
11313;SDS011;5712;48.858;9.206;2022-11-13T08:11:02;10.80;;;9.40;;
11313;SDS011;5712;48.858;9.206;2022-11-13T08:13:30;10.53;;;8.97;;
11313;SDS011;5712;48.858;9.206;2022-11-13T08:15:58;12.00;;;10.07;;
11313;SDS011;5712;48.858;9.206;2022-11-13T08:18:25;10.70;;;9.10;;
11313;SDS011;5712;48.858;9.206;2022-11-13T08:20:52;10.57;;;9.47;;
11313;SDS011;5712;48.858;9.206;2022-11-13T08:23:19;11.40;;;9.23;;
11313;SDS011;5712;48.858;9.206;2022-11-13T08:25:47;10.47;;;9.37;;
11313;SDS011;5712;48.858;9.206;2022-11-13T08:28:14;10.63;;;9.27;;
11313;SDS011;5712;48.858;9.206;2022-11-13T08:30:41;10.40;;;8.97;;
11313;SDS011;5712;48.858;9.206;2022-11-13T08:33:09;10.77;;;9.00;;
11313;SDS011;5712;48.858;9.206;2022-11-13T08:35:36;9.67;;;8.60;;
11313;SDS011;5712;48.858;9.206;2022-11-13T08:38:03;13.03;;;9.40;;
11313;SDS011;5712;48.858;9.206;2022-11-13T08:40:30;10.50;;;9.20;;
11313;SDS011;5712;48.858;9.206;2022-11-13T08:42:59;10.60;;;9.00;;
11313;SDS011;5712;48.858;9.206;2022-11-13T08:45:26;11.67;;;9.10;;
11313;SDS011;5712;48.858;9.206;2022-11-13T08:47:53;10.87;;;9.10;;
11313;SDS011;5712;48.858;9.206;2022-11-13T08:50:24;11.57;;;9.97;;
11313;SDS011;5712;48.858;9.206;2022-11-13T08:52:52;11.13;;;9.23;;
11313;SDS011;5712;48.858;9.206;2022-11-13T08:55:19;12.40;;;9.10;;
11313;SDS011;5712;48.858;9.206;2022-11-13T08:57:46;11.43;;;9.43;;
11313;SDS011;5712;48.858;9.206;2022-11-13T09:00:14;11.47;;;9.03;;
11313;SDS011;5712;48.858;9.206;2022-11-13T09:02:41;12.10;;;9.47;;
11313;SDS011;5712;48.858;9.206;2022-11-13T09:05:08;11.57;;;9.10;;
11313;SDS011;5712;48.858;9.206;2022-11-13T09:07:35;12.80;;;9.53;;
11313;SDS011;5712;48.858;9.206;2022-11-13T09:10:02;10.57;;;9.00;;
11313;SDS011;5712;48.858;9.206;2022-11-13T09:12:29;11.03;;;9.57;;
11313;SDS011;5712;48.858;9.206;2022-11-13T09:14:56;10.53;;;9.10;;
11313;SDS011;5712;48.858;9.206;2022-11-13T09:17:24;10.07;;;8.97;;
11313;SDS011;5712;48.858;9.206;2022-11-13T09:19:50;10.10;;;8.93;;
11313;SDS011;5712;48.858;9.206;2022-11-13T09:22:17;11.23;;;8.90;;
11313;SDS011;5712;48.858;9.206;2022-11-13T09:24:44;10.77;;;9.17;;
11313;SDS011;5712;48.858;9.206;2022-11-13T09:27:10;12.43;;;9.13;;
11313;SDS011;5712;48.858;9.206;2022-11-13T09:29:37;11.70;;;8.87;;
11313;SDS011;5712;48.858;9.206;2022-11-13T09:32:04;11.17;;;9.23;;
11313;SDS011;5712;48.858;9.206;2022-11-13T09:34:32;11.67;;;9.43;;
11313;SDS011;5712;48.858;9.206;2022-11-13T09:36:58;12.07;;;9.23;;
11313;SDS011;5712;48.858;9.206;2022-11-13T09:39:25;9.83;;;8.33;;
11313;SDS011;5712;48.858;9.206;2022-11-13T09:41:52;11.23;;;9.37;;
11313;SDS011;5712;48.858;9.206;2022-11-13T09:44:23;10.40;;;8.23;;
11313;SDS011;5712;48.858;9.206;2022-11-13T09:46:57;12.70;;;9.50;;
11313;SDS011;5712;48.858;9.206;2022-11-13T09:49:36;11.50;;;9.23;;
11313;SDS011;5712;48.858;9.206;2022-11-13T09:52:09;12.43;;;9.43;;
11313;SDS011;5712;48.858;9.206;2022-11-13T09:54:39;11.57;;;9.37;;
11313;SDS011;5712;48.858;9.206;2022-11-13T09:57:09;11.27;;;9.10;;
11313;SDS011;5712;48.858;9.206;2022-11-13T09:59:47;10.77;;;9.03;;
11313;SDS011;5712;48.858;9.206;2022-11-13T10:02:20;11.30;;;9.20;;
11313;SDS011;5712;48.858;9.206;2022-11-13T10:04:54;10.53;;;9.20;;
11313;SDS011;5712;48.858;9.206;2022-11-13T10:07:30;11.10;;;9.27;;
11313;SDS011;5712;48.858;9.206;2022-11-13T10:12:57;10.53;;;8.97;;
11313;SDS011;5712;48.858;9.206;2022-11-13T10:15:25;11.30;;;9.33;;
11313;SDS011;5712;48.858;9.206;2022-11-13T10:17:54;12.33;;;10.13;;
11313;SDS011;5712;48.858;9.206;2022-11-13T10:20:27;10.43;;;9.23;;
11313;SDS011;5712;48.858;9.206;2022-11-13T10:22:59;12.60;;;10.03;;
11313;SDS011;5712;48.858;9.206;2022-11-13T10:25:34;11.07;;;9.10;;
11313;SDS011;5712;48.858;9.206;2022-11-13T10:28:08;10.70;;;9.33;;
11313;SDS011;5712;48.858;9.206;2022-11-13T10:30:39;10.90;;;9.80;;
11313;SDS011;5712;48.858;9.206;2022-11-13T10:33:07;14.10;;;10.57;;
11313;SDS011;5712;48.858;9.206;2022-11-13T10:35:43;12.20;;;10.60;;
11313;SDS011;5712;48.858;9.206;2022-11-13T10:38:19;12.70;;;10.10;;
11313;SDS011;5712;48.858;9.206;2022-11-13T10:40:50;14.47;;;11.30;;
11313;SDS011;5712;48.858;9.206;2022-11-13T10:43:17;11.50;;;10.20;;
11313;SDS011;5712;48.858;9.206;2022-11-13T10:45:52;14.30;;;11.60;;
11313;SDS011;5712;48.858;9.206;2022-11-13T10:48:21;14.70;;;12.13;;
11313;SDS011;5712;48.858;9.206;2022-11-13T10:50:58;13.90;;;11.63;;
11313;SDS011;5712;48.858;9.206;2022-11-13T10:53:27;12.70;;;10.47;;
11313;SDS011;5712;48.858;9.206;2022-11-13T10:56:10;12.43;;;10.40;;
11313;SDS011;5712;48.858;9.206;2022-11-13T10:58:40;12.80;;;10.03;;
11313;SDS011;5712;48.858;9.206;2022-11-13T11:01:13;13.53;;;10.80;;
11313;SDS011;5712;48.858;9.206;2022-11-13T11:03:47;12.57;;;10.37;;
11313;SDS011;5712;48.858;9.206;2022-11-13T11:06:15;12.83;;;10.00;;
11313;SDS011;5712;48.858;9.206;2022-11-13T11:08:42;11.27;;;9.97;;
11313;SDS011;5712;48.858;9.206;2022-11-13T11:11:12;11.97;;;10.07;;
11313;SDS011;5712;48.858;9.206;2022-11-13T11:14:03;12.40;;;9.97;;
11313;SDS011;5712;48.858;9.206;2022-11-13T11:16:34;12.40;;;10.03;;
11313;SDS011;5712;48.858;9.206;2022-11-13T11:19:03;11.13;;;9.40;;
11313;SDS011;5712;48.858;9.206;2022-11-13T11:21:36;11.80;;;10.13;;
11313;SDS011;5712;48.858;9.206;2022-11-13T11:24:06;11.80;;;9.87;;
11313;SDS011;5712;48.858;9.206;2022-11-13T11:26:38;11.80;;;9.97;;
11313;SDS011;5712;48.858;9.206;2022-11-13T11:29:12;12.40;;;10.27;;
11313;SDS011;5712;48.858;9.206;2022-11-13T11:31:45;11.67;;;9.50;;
11313;SDS011;5712;48.858;9.206;2022-11-13T11:34:17;11.10;;;9.57;;
11313;SDS011;5712;48.858;9.206;2022-11-13T11:36:52;11.90;;;10.00;;
11313;SDS011;5712;48.858;9.206;2022-11-13T11:39:32;11.23;;;9.60;;
11313;SDS011;5712;48.858;9.206;2022-11-13T11:42:07;11.93;;;10.23;;
11313;SDS011;5712;48.858;9.206;2022-11-13T11:44:41;12.17;;;10.53;;
11313;SDS011;5712;48.858;9.206;2022-11-13T11:47:20;13.20;;;10.67;;
11313;SDS011;5712;48.858;9.206;2022-11-13T11:49:47;11.83;;;10.07;;
11313;SDS011;5712;48.858;9.206;2022-11-13T11:52:23;11.27;;;10.10;;
11313;SDS011;5712;48.858;9.206;2022-11-13T11:55:01;12.67;;;10.50;;
11313;SDS011;5712;48.858;9.206;2022-11-13T11:57:43;13.63;;;11.10;;
11313;SDS011;5712;48.858;9.206;2022-11-13T12:00:15;12.60;;;11.13;;
11313;SDS011;5712;48.858;9.206;2022-11-13T12:02:50;11.77;;;10.00;;
11313;SDS011;5712;48.858;9.206;2022-11-13T12:05:33;12.03;;;9.83;;
11313;SDS011;5712;48.858;9.206;2022-11-13T12:08:11;12.87;;;10.67;;
11313;SDS011;5712;48.858;9.206;2022-11-13T12:10:50;11.30;;;9.87;;
11313;SDS011;5712;48.858;9.206;2022-11-13T12:13:25;12.63;;;10.00;;
11313;SDS011;5712;48.858;9.206;2022-11-13T12:15:57;11.03;;;9.53;;
11313;SDS011;5712;48.858;9.206;2022-11-13T12:18:32;11.07;;;9.90;;
11313;SDS011;5712;48.858;9.206;2022-11-13T12:21:16;11.63;;;9.93;;
11313;SDS011;5712;48.858;9.206;2022-11-13T12:23:53;10.70;;;9.37;;
11313;SDS011;5712;48.858;9.206;2022-11-13T12:26:29;11.07;;;9.73;;
11313;SDS011;5712;48.858;9.206;2022-11-13T12:29:04;12.33;;;9.93;;
11313;SDS011;5712;48.858;9.206;2022-11-13T12:31:44;11.10;;;8.93;;
11313;SDS011;5712;48.858;9.206;2022-11-13T12:34:24;10.00;;;8.77;;
11313;SDS011;5712;48.858;9.206;2022-11-13T12:36:53;9.87;;;8.87;;
11313;SDS011;5712;48.858;9.206;2022-11-13T12:39:35;11.23;;;9.67;;
11313;SDS011;5712;48.858;9.206;2022-11-13T12:42:12;10.20;;;9.10;;
11313;SDS011;5712;48.858;9.206;2022-11-13T12:44:48;10.27;;;8.77;;
11313;SDS011;5712;48.858;9.206;2022-11-13T12:47:21;11.10;;;9.33;;
11313;SDS011;5712;48.858;9.206;2022-11-13T12:49:56;9.13;;;8.23;;
11313;SDS011;5712;48.858;9.206;2022-11-13T12:52:24;9.70;;;8.70;;
11313;SDS011;5712;48.858;9.206;2022-11-13T12:55:01;8.77;;;7.87;;
11313;SDS011;5712;48.858;9.206;2022-11-13T12:57:30;9.03;;;7.93;;
11313;SDS011;5712;48.858;9.206;2022-11-13T12:59:57;8.97;;;7.93;;
11313;SDS011;5712;48.858;9.206;2022-11-13T13:02:39;9.50;;;8.50;;
11313;SDS011;5712;48.858;9.206;2022-11-13T13:05:19;9.40;;;8.33;;
11313;SDS011;5712;48.858;9.206;2022-11-13T13:10:56;9.73;;;8.20;;
11313;SDS011;5712;48.858;9.206;2022-11-13T13:13:36;8.53;;;7.63;;
11313;SDS011;5712;48.858;9.206;2022-11-13T13:16:09;8.20;;;7.27;;
11313;SDS011;5712;48.858;9.206;2022-11-13T13:18:36;8.07;;;7.27;;
11313;SDS011;5712;48.858;9.206;2022-11-13T13:21:05;8.50;;;7.70;;
11313;SDS011;5712;48.858;9.206;2022-11-13T13:23:35;8.73;;;7.83;;
11313;SDS011;5712;48.858;9.206;2022-11-13T13:26:05;8.83;;;7.30;;
11313;SDS011;5712;48.858;9.206;2022-11-13T13:28:40;9.57;;;7.83;;
11313;SDS011;5712;48.858;9.206;2022-11-13T13:31:13;9.40;;;7.90;;
11313;SDS011;5712;48.858;9.206;2022-11-13T13:33:49;8.87;;;7.97;;
11313;SDS011;5712;48.858;9.206;2022-11-13T13:36:24;8.90;;;8.00;;
11313;SDS011;5712;48.858;9.206;2022-11-13T13:39:01;9.47;;;8.10;;
11313;SDS011;5712;48.858;9.206;2022-11-13T13:41:41;9.53;;;8.20;;
11313;SDS011;5712;48.858;9.206;2022-11-13T13:44:20;9.63;;;8.13;;
11313;SDS011;5712;48.858;9.206;2022-11-13T13:46:56;8.93;;;8.03;;
11313;SDS011;5712;48.858;9.206;2022-11-13T13:49:23;9.60;;;8.57;;
11313;SDS011;5712;48.858;9.206;2022-11-13T13:51:53;9.50;;;8.50;;
11313;SDS011;5712;48.858;9.206;2022-11-13T13:54:22;10.67;;;8.97;;
11313;SDS011;5712;48.858;9.206;2022-11-13T13:56:53;9.87;;;8.87;;
11313;SDS011;5712;48.858;9.206;2022-11-13T13:59:22;10.40;;;9.10;;
11313;SDS011;5712;48.858;9.206;2022-11-13T14:01:54;9.80;;;8.77;;
11313;SDS011;5712;48.858;9.206;2022-11-13T14:04:23;9.03;;;8.13;;
11313;SDS011;5712;48.858;9.206;2022-11-13T14:06:52;9.27;;;8.37;;
11313;SDS011;5712;48.858;9.206;2022-11-13T14:09:21;9.50;;;8.23;;
11313;SDS011;5712;48.858;9.206;2022-11-13T14:11:56;8.03;;;7.23;;
11313;SDS011;5712;48.858;9.206;2022-11-13T14:14:23;8.97;;;7.80;;
11313;SDS011;5712;48.858;9.206;2022-11-13T14:16:51;9.57;;;8.00;;
11313;SDS011;5712;48.858;9.206;2022-11-13T14:19:19;9.07;;;8.10;;
11313;SDS011;5712;48.858;9.206;2022-11-13T14:21:48;9.40;;;8.07;;
11313;SDS011;5712;48.858;9.206;2022-11-13T14:24:18;9.60;;;8.57;;
11313;SDS011;5712;48.858;9.206;2022-11-13T14:26:47;9.10;;;7.97;;
11313;SDS011;5712;48.858;9.206;2022-11-13T14:29:21;9.07;;;8.17;;
11313;SDS011;5712;48.858;9.206;2022-11-13T14:32:01;8.83;;;7.93;;
11313;SDS011;5712;48.858;9.206;2022-11-13T14:34:28;8.47;;;7.53;;
11313;SDS011;5712;48.858;9.206;2022-11-13T14:36:55;9.70;;;8.30;;
11313;SDS011;5712;48.858;9.206;2022-11-13T14:39:31;7.90;;;7.10;;
11313;SDS011;5712;48.858;9.206;2022-11-13T14:41:59;10.23;;;8.70;;
11313;SDS011;5712;48.858;9.206;2022-11-13T14:44:28;11.03;;;8.70;;
11313;SDS011;5712;48.858;9.206;2022-11-13T14:46:57;10.90;;;8.90;;
11313;SDS011;5712;48.858;9.206;2022-11-13T14:49:26;10.30;;;8.73;;
11313;SDS011;5712;48.858;9.206;2022-11-13T14:51:56;9.93;;;8.70;;
11313;SDS011;5712;48.858;9.206;2022-11-13T14:54:33;10.33;;;9.23;;
11313;SDS011;5712;48.858;9.206;2022-11-13T14:57:14;11.47;;;8.53;;
11313;SDS011;5712;48.858;9.206;2022-11-13T15:00:09;11.10;;;9.13;;
11313;SDS011;5712;48.858;9.206;2022-11-13T15:02:49;8.60;;;7.70;;